sensor_id;sensor_type;location;lat;lon;timestamp;P1;durP1;ratioP1;P2;durP2;ratioP2
11677;SDS011;5895;41.950;24.372;2023-12-14T00:01:16;2.85;;;2.33;;
11677;SDS011;5895;41.950;24.372;2023-12-14T00:03:43;2.10;;;1.90;;
11677;SDS011;5895;41.950;24.372;2023-12-14T00:06:12;2.90;;;2.00;;
11677;SDS011;5895;41.950;24.372;2023-12-14T00:08:39;2.10;;;1.95;;
11677;SDS011;5895;41.950;24.372;2023-12-14T00:11:08;2.10;;;1.90;;
11677;SDS011;5895;41.950;24.372;2023-12-14T00:13:37;1.70;;;1.60;;
11677;SDS011;5895;41.950;24.372;2023-12-14T00:16:05;3.13;;;1.77;;
11677;SDS011;5895;41.950;24.372;2023-12-14T00:18:33;1.85;;;1.70;;
11677;SDS011;5895;41.950;24.372;2023-12-14T00:21:00;2.30;;;2.10;;
11677;SDS011;5895;41.950;24.372;2023-12-14T00:23:28;2.42;;;1.90;;
11677;SDS011;5895;41.950;24.372;2023-12-14T00:25:55;2.08;;;1.90;;
11677;SDS011;5895;41.950;24.372;2023-12-14T00:28:22;2.67;;;1.85;;
11677;SDS011;5895;41.950;24.372;2023-12-14T00:30:49;2.92;;;2.20;;
11677;SDS011;5895;41.950;24.372;2023-12-14T00:33:16;2.95;;;2.10;;
11677;SDS011;5895;41.950;24.372;2023-12-14T00:35:43;2.55;;;2.05;;
11677;SDS011;5895;41.950;24.372;2023-12-14T00:38:10;2.25;;;2.10;;
11677;SDS011;5895;41.950;24.372;2023-12-14T00:40:39;2.40;;;2.20;;
11677;SDS011;5895;41.950;24.372;2023-12-14T00:43:06;2.40;;;2.25;;
11677;SDS011;5895;41.950;24.372;2023-12-14T00:45:33;2.85;;;2.17;;
11677;SDS011;5895;41.950;24.372;2023-12-14T00:48:00;2.33;;;2.13;;
11677;SDS011;5895;41.950;24.372;2023-12-14T00:50:27;2.20;;;1.92;;
11677;SDS011;5895;41.950;24.372;2023-12-14T00:52:54;2.83;;;2.22;;
11677;SDS011;5895;41.950;24.372;2023-12-14T00:55:20;2.30;;;2.10;;
11677;SDS011;5895;41.950;24.372;2023-12-14T00:57:49;2.97;;;2.15;;
11677;SDS011;5895;41.950;24.372;2023-12-14T01:00:16;2.72;;;2.25;;
11677;SDS011;5895;41.950;24.372;2023-12-14T01:02:44;2.75;;;2.05;;
11677;SDS011;5895;41.950;24.372;2023-12-14T01:05:11;2.58;;;2.20;;
11677;SDS011;5895;41.950;24.372;2023-12-14T01:07:38;3.50;;;1.90;;
11677;SDS011;5895;41.950;24.372;2023-12-14T01:10:06;2.05;;;1.92;;
11677;SDS011;5895;41.950;24.372;2023-12-14T01:12:34;3.80;;;2.55;;
11677;SDS011;5895;41.950;24.372;2023-12-14T01:15:02;3.35;;;2.15;;
11677;SDS011;5895;41.950;24.372;2023-12-14T01:17:30;1.98;;;1.85;;
11677;SDS011;5895;41.950;24.372;2023-12-14T01:20:02;3.17;;;1.95;;
11677;SDS011;5895;41.950;24.372;2023-12-14T01:22:31;2.65;;;2.00;;
11677;SDS011;5895;41.950;24.372;2023-12-14T01:24:58;2.15;;;1.80;;
11677;SDS011;5895;41.950;24.372;2023-12-14T01:27:25;1.65;;;1.55;;
11677;SDS011;5895;41.950;24.372;2023-12-14T01:29:52;1.67;;;1.58;;
11677;SDS011;5895;41.950;24.372;2023-12-14T01:32:20;3.72;;;1.95;;
11677;SDS011;5895;41.950;24.372;2023-12-14T01:34:47;2.38;;;1.95;;
11677;SDS011;5895;41.950;24.372;2023-12-14T01:37:14;1.67;;;1.58;;
11677;SDS011;5895;41.950;24.372;2023-12-14T01:39:41;2.83;;;1.45;;
11677;SDS011;5895;41.950;24.372;2023-12-14T01:42:08;3.25;;;1.65;;
11677;SDS011;5895;41.950;24.372;2023-12-14T01:44:35;2.08;;;1.60;;
11677;SDS011;5895;41.950;24.372;2023-12-14T01:52:14;2.08;;;1.83;;
11677;SDS011;5895;41.950;24.372;2023-12-14T01:54:41;1.48;;;1.38;;
11677;SDS011;5895;41.950;24.372;2023-12-14T01:57:08;2.35;;;1.42;;
11677;SDS011;5895;41.950;24.372;2023-12-14T01:59:35;2.65;;;1.65;;
11677;SDS011;5895;41.950;24.372;2023-12-14T02:02:02;2.38;;;1.50;;
11677;SDS011;5895;41.950;24.372;2023-12-14T02:04:32;1.42;;;1.30;;
11677;SDS011;5895;41.950;24.372;2023-12-14T02:06:59;2.00;;;1.30;;
11677;SDS011;5895;41.950;24.372;2023-12-14T02:09:27;3.88;;;1.40;;
11677;SDS011;5895;41.950;24.372;2023-12-14T02:11:54;2.10;;;1.20;;
11677;SDS011;5895;41.950;24.372;2023-12-14T02:14:22;2.97;;;1.40;;
11677;SDS011;5895;41.950;24.372;2023-12-14T02:16:49;2.17;;;1.30;;
11677;SDS011;5895;41.950;24.372;2023-12-14T02:19:16;1.45;;;1.23;;
11677;SDS011;5895;41.950;24.372;2023-12-14T02:21:43;1.23;;;1.13;;
11677;SDS011;5895;41.950;24.372;2023-12-14T02:24:11;1.42;;;1.27;;
11677;SDS011;5895;41.950;24.372;2023-12-14T02:26:38;1.17;;;1.08;;
11677;SDS011;5895;41.950;24.372;2023-12-14T02:29:05;2.88;;;1.10;;
11677;SDS011;5895;41.950;24.372;2023-12-14T02:31:32;1.30;;;1.20;;
11677;SDS011;5895;41.950;24.372;2023-12-14T02:36:27;1.30;;;1.20;;
11677;SDS011;5895;41.950;24.372;2023-12-14T02:44:01;1.67;;;1.55;;
11677;SDS011;5895;41.950;24.372;2023-12-14T02:59:12;1.25;;;1.15;;
11677;SDS011;5895;41.950;24.372;2023-12-14T03:01:39;1.52;;;1.17;;
11677;SDS011;5895;41.950;24.372;2023-12-14T03:04:06;1.25;;;1.15;;
11677;SDS011;5895;41.950;24.372;2023-12-14T03:06:33;1.45;;;1.35;;
11677;SDS011;5895;41.950;24.372;2023-12-14T03:09:00;2.13;;;1.20;;
11677;SDS011;5895;41.950;24.372;2023-12-14T03:14:02;2.38;;;1.13;;
11677;SDS011;5895;41.950;24.372;2023-12-14T03:16:31;3.63;;;1.33;;
11677;SDS011;5895;41.950;24.372;2023-12-14T03:19:00;3.53;;;1.38;;
11677;SDS011;5895;41.950;24.372;2023-12-14T03:21:28;2.03;;;1.17;;
11677;SDS011;5895;41.950;24.372;2023-12-14T03:23:56;1.30;;;1.20;;
11677;SDS011;5895;41.950;24.372;2023-12-14T03:26:23;1.48;;;1.33;;
11677;SDS011;5895;41.950;24.372;2023-12-14T03:28:50;2.63;;;1.58;;
11677;SDS011;5895;41.950;24.372;2023-12-14T03:31:17;2.03;;;1.30;;
11677;SDS011;5895;41.950;24.372;2023-12-14T03:33:45;1.63;;;1.30;;
11677;SDS011;5895;41.950;24.372;2023-12-14T03:36:12;2.35;;;1.38;;
11677;SDS011;5895;41.950;24.372;2023-12-14T03:38:39;1.30;;;1.20;;
11677;SDS011;5895;41.950;24.372;2023-12-14T03:41:06;1.92;;;1.30;;
11677;SDS011;5895;41.950;24.372;2023-12-14T03:43:33;1.30;;;1.20;;
11677;SDS011;5895;41.950;24.372;2023-12-14T03:46:00;1.40;;;1.30;;
11677;SDS011;5895;41.950;24.372;2023-12-14T03:48:27;2.95;;;1.40;;
11677;SDS011;5895;41.950;24.372;2023-12-14T03:50:55;2.42;;;1.17;;
11677;SDS011;5895;41.950;24.372;2023-12-14T03:53:22;1.80;;;1.40;;
11677;SDS011;5895;41.950;24.372;2023-12-14T03:55:49;2.10;;;1.42;;
11677;SDS011;5895;41.950;24.372;2023-12-14T03:58:16;1.98;;;1.40;;
11677;SDS011;5895;41.950;24.372;2023-12-14T04:00:43;1.98;;;1.27;;
11677;SDS011;5895;41.950;24.372;2023-12-14T04:03:10;3.03;;;1.20;;
11677;SDS011;5895;41.950;24.372;2023-12-14T04:05:37;1.50;;;1.40;;
11677;SDS011;5895;41.950;24.372;2023-12-14T04:08:06;4.05;;;1.40;;
11677;SDS011;5895;41.950;24.372;2023-12-14T04:10:33;2.20;;;1.35;;
11677;SDS011;5895;41.950;24.372;2023-12-14T04:13:00;1.40;;;1.30;;
11677;SDS011;5895;41.950;24.372;2023-12-14T04:15:27;1.50;;;1.20;;
11677;SDS011;5895;41.950;24.372;2023-12-14T04:17:54;1.80;;;1.20;;
11677;SDS011;5895;41.950;24.372;2023-12-14T04:20:21;3.17;;;1.10;;
11677;SDS011;5895;41.950;24.372;2023-12-14T04:22:48;2.08;;;1.52;;
11677;SDS011;5895;41.950;24.372;2023-12-14T04:25:16;1.85;;;1.40;;
11677;SDS011;5895;41.950;24.372;2023-12-14T04:27:44;1.27;;;1.08;;
11677;SDS011;5895;41.950;24.372;2023-12-14T04:30:11;1.42;;;1.33;;
11677;SDS011;5895;41.950;24.372;2023-12-14T04:32:38;2.13;;;1.30;;
11677;SDS011;5895;41.950;24.372;2023-12-14T04:35:05;1.30;;;1.20;;
11677;SDS011;5895;41.950;24.372;2023-12-14T04:37:33;1.30;;;1.20;;
11677;SDS011;5895;41.950;24.372;2023-12-14T04:40:01;1.73;;;1.17;;
11677;SDS011;5895;41.950;24.372;2023-12-14T04:42:30;1.50;;;1.20;;
11677;SDS011;5895;41.950;24.372;2023-12-14T04:44:57;3.00;;;1.27;;
11677;SDS011;5895;41.950;24.372;2023-12-14T04:47:24;1.38;;;1.17;;
11677;SDS011;5895;41.950;24.372;2023-12-14T04:49:51;1.98;;;1.23;;
11677;SDS011;5895;41.950;24.372;2023-12-14T04:52:18;3.40;;;1.50;;
11677;SDS011;5895;41.950;24.372;2023-12-14T04:54:45;1.38;;;1.20;;
11677;SDS011;5895;41.950;24.372;2023-12-14T04:57:12;1.20;;;1.10;;
11677;SDS011;5895;41.950;24.372;2023-12-14T04:59:42;1.40;;;1.30;;
11677;SDS011;5895;41.950;24.372;2023-12-14T05:02:09;3.65;;;1.20;;
11677;SDS011;5895;41.950;24.372;2023-12-14T05:04:36;1.20;;;1.05;;
11677;SDS011;5895;41.950;24.372;2023-12-14T05:07:03;1.52;;;1.33;;
11677;SDS011;5895;41.950;24.372;2023-12-14T05:09:31;1.30;;;1.20;;
11677;SDS011;5895;41.950;24.372;2023-12-14T05:11:58;1.20;;;1.10;;
11677;SDS011;5895;41.950;24.372;2023-12-14T05:14:25;1.75;;;1.10;;
11677;SDS011;5895;41.950;24.372;2023-12-14T05:16:55;1.42;;;1.15;;
11677;SDS011;5895;41.950;24.372;2023-12-14T05:19:22;2.33;;;1.25;;
11677;SDS011;5895;41.950;24.372;2023-12-14T05:21:50;1.40;;;1.30;;
11677;SDS011;5895;41.950;24.372;2023-12-14T05:24:19;1.58;;;1.38;;
11677;SDS011;5895;41.950;24.372;2023-12-14T05:26:46;2.92;;;1.20;;
11677;SDS011;5895;41.950;24.372;2023-12-14T05:29:13;1.92;;;1.20;;
11677;SDS011;5895;41.950;24.372;2023-12-14T05:31:40;1.30;;;1.20;;
11677;SDS011;5895;41.950;24.372;2023-12-14T05:34:08;2.22;;;1.23;;
11677;SDS011;5895;41.950;24.372;2023-12-14T05:36:35;1.75;;;1.10;;
11677;SDS011;5895;41.950;24.372;2023-12-14T05:39:02;1.27;;;1.17;;
11677;SDS011;5895;41.950;24.372;2023-12-14T05:41:30;1.45;;;1.10;;
11677;SDS011;5895;41.950;24.372;2023-12-14T05:43:57;1.35;;;1.17;;
11677;SDS011;5895;41.950;24.372;2023-12-14T05:46:24;1.00;;;1.00;;
11677;SDS011;5895;41.950;24.372;2023-12-14T05:48:51;1.50;;;1.13;;
11677;SDS011;5895;41.950;24.372;2023-12-14T05:51:29;1.95;;;1.40;;
11677;SDS011;5895;41.950;24.372;2023-12-14T05:53:57;1.30;;;1.15;;
11677;SDS011;5895;41.950;24.372;2023-12-14T05:56:24;2.65;;;1.40;;
11677;SDS011;5895;41.950;24.372;2023-12-14T05:58:52;1.60;;;1.50;;
11677;SDS011;5895;41.950;24.372;2023-12-14T06:01:19;2.53;;;1.40;;
11677;SDS011;5895;41.950;24.372;2023-12-14T06:03:46;1.50;;;1.30;;
11677;SDS011;5895;41.950;24.372;2023-12-14T06:06:13;2.28;;;1.20;;
11677;SDS011;5895;41.950;24.372;2023-12-14T06:08:42;2.25;;;1.40;;
11677;SDS011;5895;41.950;24.372;2023-12-14T06:11:09;1.48;;;1.30;;
11677;SDS011;5895;41.950;24.372;2023-12-14T06:13:36;1.90;;;1.40;;
11677;SDS011;5895;41.950;24.372;2023-12-14T06:16:04;1.55;;;1.40;;
11677;SDS011;5895;41.950;24.372;2023-12-14T06:18:33;1.42;;;1.33;;
11677;SDS011;5895;41.950;24.372;2023-12-14T06:21:00;2.28;;;1.60;;
11677;SDS011;5895;41.950;24.372;2023-12-14T06:23:27;2.28;;;1.42;;
11677;SDS011;5895;41.950;24.372;2023-12-14T06:25:56;1.90;;;1.30;;
11677;SDS011;5895;41.950;24.372;2023-12-14T06:28:24;1.63;;;1.40;;
11677;SDS011;5895;41.950;24.372;2023-12-14T06:30:51;1.63;;;1.35;;
11677;SDS011;5895;41.950;24.372;2023-12-14T06:33:18;1.40;;;1.30;;
11677;SDS011;5895;41.950;24.372;2023-12-14T06:35:45;2.50;;;1.65;;
11677;SDS011;5895;41.950;24.372;2023-12-14T06:38:11;2.15;;;1.20;;
11677;SDS011;5895;41.950;24.372;2023-12-14T06:40:38;2.08;;;1.40;;
11677;SDS011;5895;41.950;24.372;2023-12-14T06:43:07;1.30;;;1.20;;
11677;SDS011;5895;41.950;24.372;2023-12-14T06:45:36;2.88;;;1.42;;
11677;SDS011;5895;41.950;24.372;2023-12-14T06:48:03;2.65;;;1.17;;
11677;SDS011;5895;41.950;24.372;2023-12-14T06:50:31;1.77;;;1.20;;
11677;SDS011;5895;41.950;24.372;2023-12-14T06:52:58;1.48;;;1.35;;
11677;SDS011;5895;41.950;24.372;2023-12-14T06:55:25;1.30;;;1.20;;
11677;SDS011;5895;41.950;24.372;2023-12-14T06:57:52;1.80;;;1.40;;
11677;SDS011;5895;41.950;24.372;2023-12-14T07:00:20;1.70;;;1.25;;
11677;SDS011;5895;41.950;24.372;2023-12-14T07:02:47;1.45;;;1.35;;
11677;SDS011;5895;41.950;24.372;2023-12-14T07:05:14;1.90;;;1.30;;
11677;SDS011;5895;41.950;24.372;2023-12-14T07:07:41;1.83;;;1.40;;
11677;SDS011;5895;41.950;24.372;2023-12-14T07:10:08;2.03;;;1.40;;
11677;SDS011;5895;41.950;24.372;2023-12-14T07:12:35;1.25;;;1.15;;
11677;SDS011;5895;41.950;24.372;2023-12-14T07:15:03;1.33;;;1.23;;
11677;SDS011;5895;41.950;24.372;2023-12-14T07:17:32;1.38;;;1.27;;
11677;SDS011;5895;41.950;24.372;2023-12-14T07:19:59;1.90;;;1.40;;
11677;SDS011;5895;41.950;24.372;2023-12-14T07:22:27;1.50;;;1.40;;
11677;SDS011;5895;41.950;24.372;2023-12-14T07:24:54;1.83;;;1.38;;
11677;SDS011;5895;41.950;24.372;2023-12-14T07:27:21;1.65;;;1.35;;
11677;SDS011;5895;41.950;24.372;2023-12-14T07:29:48;1.40;;;1.30;;
11677;SDS011;5895;41.950;24.372;2023-12-14T07:32:15;1.45;;;1.35;;
11677;SDS011;5895;41.950;24.372;2023-12-14T07:34:44;1.40;;;1.30;;
11677;SDS011;5895;41.950;24.372;2023-12-14T07:37:11;2.55;;;1.52;;
11677;SDS011;5895;41.950;24.372;2023-12-14T07:39:38;2.17;;;1.27;;
11677;SDS011;5895;41.950;24.372;2023-12-14T07:42:05;3.17;;;1.23;;
11677;SDS011;5895;41.950;24.372;2023-12-14T07:44:32;1.65;;;1.30;;
11677;SDS011;5895;41.950;24.372;2023-12-14T07:47:00;2.15;;;1.40;;
11677;SDS011;5895;41.950;24.372;2023-12-14T07:49:28;1.90;;;1.27;;
11677;SDS011;5895;41.950;24.372;2023-12-14T07:51:56;1.67;;;1.40;;
11677;SDS011;5895;41.950;24.372;2023-12-14T07:54:23;2.15;;;1.30;;
11677;SDS011;5895;41.950;24.372;2023-12-14T07:56:52;2.20;;;1.20;;
11677;SDS011;5895;41.950;24.372;2023-12-14T07:59:19;1.85;;;1.30;;
11677;SDS011;5895;41.950;24.372;2023-12-14T08:01:46;2.97;;;1.30;;
11677;SDS011;5895;41.950;24.372;2023-12-14T08:04:13;2.47;;;1.20;;
11677;SDS011;5895;41.950;24.372;2023-12-14T08:06:40;2.05;;;1.85;;
11677;SDS011;5895;41.950;24.372;2023-12-14T08:09:09;2.25;;;1.25;;
11677;SDS011;5895;41.950;24.372;2023-12-14T08:11:36;1.45;;;1.35;;
11677;SDS011;5895;41.950;24.372;2023-12-14T08:14:03;1.48;;;1.30;;
11677;SDS011;5895;41.950;24.372;2023-12-14T08:16:30;1.80;;;1.30;;
11677;SDS011;5895;41.950;24.372;2023-12-14T08:18:57;1.60;;;1.25;;
11677;SDS011;5895;41.950;24.372;2023-12-14T08:21:24;2.97;;;1.30;;
11677;SDS011;5895;41.950;24.372;2023-12-14T08:23:51;1.85;;;1.35;;
11677;SDS011;5895;41.950;24.372;2023-12-14T08:26:19;2.35;;;1.45;;
11677;SDS011;5895;41.950;24.372;2023-12-14T08:28:46;3.55;;;1.70;;
11677;SDS011;5895;41.950;24.372;2023-12-14T08:31:13;1.42;;;1.33;;
11677;SDS011;5895;41.950;24.372;2023-12-14T08:33:41;1.77;;;1.30;;
11677;SDS011;5895;41.950;24.372;2023-12-14T08:36:08;1.50;;;1.27;;
11677;SDS011;5895;41.950;24.372;2023-12-14T08:38:36;1.42;;;1.27;;
11677;SDS011;5895;41.950;24.372;2023-12-14T08:41:03;1.90;;;1.65;;
11677;SDS011;5895;41.950;24.372;2023-12-14T08:43:32;1.48;;;1.38;;
11677;SDS011;5895;41.950;24.372;2023-12-14T08:45:59;1.60;;;1.45;;
11677;SDS011;5895;41.950;24.372;2023-12-14T08:48:26;1.50;;;1.40;;
11677;SDS011;5895;41.950;24.372;2023-12-14T08:50:53;1.67;;;1.42;;
11677;SDS011;5895;41.950;24.372;2023-12-14T08:53:20;1.70;;;1.40;;
11677;SDS011;5895;41.950;24.372;2023-12-14T08:55:47;2.55;;;1.35;;
11677;SDS011;5895;41.950;24.372;2023-12-14T08:58:14;3.45;;;1.67;;
11677;SDS011;5895;41.950;24.372;2023-12-14T09:00:43;1.50;;;1.40;;
11677;SDS011;5895;41.950;24.372;2023-12-14T09:03:10;3.50;;;1.58;;
11677;SDS011;5895;41.950;24.372;2023-12-14T09:05:37;3.78;;;1.52;;
11677;SDS011;5895;41.950;24.372;2023-12-14T09:08:07;1.67;;;1.40;;
11677;SDS011;5895;41.950;24.372;2023-12-14T09:10:34;1.50;;;1.40;;
11677;SDS011;5895;41.950;24.372;2023-12-14T09:13:01;1.85;;;1.60;;
11677;SDS011;5895;41.950;24.372;2023-12-14T09:15:29;2.22;;;1.50;;
11677;SDS011;5895;41.950;24.372;2023-12-14T09:17:58;1.50;;;1.40;;
11677;SDS011;5895;41.950;24.372;2023-12-14T09:20:25;1.63;;;1.52;;
11677;SDS011;5895;41.950;24.372;2023-12-14T09:22:52;2.80;;;1.60;;
11677;SDS011;5895;41.950;24.372;2023-12-14T09:25:19;1.45;;;1.35;;
11677;SDS011;5895;41.950;24.372;2023-12-14T09:27:46;2.00;;;1.50;;
11677;SDS011;5895;41.950;24.372;2023-12-14T09:30:13;1.67;;;1.58;;
11677;SDS011;5895;41.950;24.372;2023-12-14T09:32:42;3.25;;;1.80;;
11677;SDS011;5895;41.950;24.372;2023-12-14T09:35:11;1.75;;;1.65;;
11677;SDS011;5895;41.950;24.372;2023-12-14T09:37:38;1.50;;;1.40;;
11677;SDS011;5895;41.950;24.372;2023-12-14T09:40:06;2.35;;;1.60;;
11677;SDS011;5895;41.950;24.372;2023-12-14T09:42:36;2.05;;;1.60;;
11677;SDS011;5895;41.950;24.372;2023-12-14T09:45:05;1.85;;;1.70;;
11677;SDS011;5895;41.950;24.372;2023-12-14T09:47:33;2.38;;;1.60;;
11677;SDS011;5895;41.950;24.372;2023-12-14T09:50:00;2.58;;;1.52;;
11677;SDS011;5895;41.950;24.372;2023-12-14T09:52:29;3.63;;;1.50;;
11677;SDS011;5895;41.950;24.372;2023-12-14T09:54:58;2.90;;;1.70;;
11677;SDS011;5895;41.950;24.372;2023-12-14T09:57:25;1.65;;;1.50;;
11677;SDS011;5895;41.950;24.372;2023-12-14T09:59:52;1.70;;;1.60;;
11677;SDS011;5895;41.950;24.372;2023-12-14T10:02:21;1.80;;;1.70;;
11677;SDS011;5895;41.950;24.372;2023-12-14T10:04:51;2.42;;;1.60;;
11677;SDS011;5895;41.950;24.372;2023-12-14T10:07:18;2.78;;;1.63;;
11677;SDS011;5895;41.950;24.372;2023-12-14T10:09:47;1.95;;;1.65;;
11677;SDS011;5895;41.950;24.372;2023-12-14T10:12:15;1.73;;;1.60;;
11677;SDS011;5895;41.950;24.372;2023-12-14T10:14:43;1.77;;;1.60;;
11677;SDS011;5895;41.950;24.372;2023-12-14T10:17:14;2.00;;;1.52;;
11677;SDS011;5895;41.950;24.372;2023-12-14T10:19:43;3.92;;;1.60;;
11677;SDS011;5895;41.950;24.372;2023-12-14T10:22:11;2.35;;;1.52;;
11677;SDS011;5895;41.950;24.372;2023-12-14T10:24:42;2.08;;;1.60;;
11677;SDS011;5895;41.950;24.372;2023-12-14T10:27:11;2.33;;;1.88;;
11677;SDS011;5895;41.950;24.372;2023-12-14T10:29:38;1.70;;;1.60;;
11677;SDS011;5895;41.950;24.372;2023-12-14T10:32:06;3.17;;;1.75;;
11677;SDS011;5895;41.950;24.372;2023-12-14T10:34:36;2.78;;;1.80;;
11677;SDS011;5895;41.950;24.372;2023-12-14T10:37:04;3.05;;;2.00;;
11677;SDS011;5895;41.950;24.372;2023-12-14T10:39:33;3.10;;;1.73;;
11677;SDS011;5895;41.950;24.372;2023-12-14T10:42:02;2.88;;;1.80;;
11677;SDS011;5895;41.950;24.372;2023-12-14T10:44:32;6.95;;;1.83;;
11677;SDS011;5895;41.950;24.372;2023-12-14T10:47:03;2.58;;;1.73;;
11677;SDS011;5895;41.950;24.372;2023-12-14T10:49:33;2.03;;;1.60;;
11677;SDS011;5895;41.950;24.372;2023-12-14T10:52:01;2.65;;;1.40;;
11677;SDS011;5895;41.950;24.372;2023-12-14T10:54:30;2.33;;;1.67;;
11677;SDS011;5895;41.950;24.372;2023-12-14T10:57:01;1.70;;;1.60;;
11677;SDS011;5895;41.950;24.372;2023-12-14T10:59:29;2.83;;;1.73;;
11677;SDS011;5895;41.950;24.372;2023-12-14T11:01:59;3.00;;;1.80;;
11677;SDS011;5895;41.950;24.372;2023-12-14T11:10:10;2.20;;;1.63;;
11677;SDS011;5895;41.950;24.372;2023-12-14T11:12:38;2.85;;;1.40;;
11677;SDS011;5895;41.950;24.372;2023-12-14T11:15:18;2.28;;;1.65;;
11677;SDS011;5895;41.950;24.372;2023-12-14T11:20:49;3.72;;;1.70;;
11677;SDS011;5895;41.950;24.372;2023-12-14T11:23:18;2.22;;;1.60;;
11677;SDS011;5895;41.950;24.372;2023-12-14T11:25:57;1.70;;;1.38;;
11677;SDS011;5895;41.950;24.372;2023-12-14T11:28:25;1.50;;;1.30;;
11677;SDS011;5895;41.950;24.372;2023-12-14T11:30:54;1.40;;;1.30;;
11677;SDS011;5895;41.950;24.372;2023-12-14T11:33:22;1.70;;;1.35;;
11677;SDS011;5895;41.950;24.372;2023-12-14T11:35:50;2.70;;;1.65;;
11677;SDS011;5895;41.950;24.372;2023-12-14T11:38:18;2.05;;;1.42;;
11677;SDS011;5895;41.950;24.372;2023-12-14T11:40:46;1.70;;;1.30;;
11677;SDS011;5895;41.950;24.372;2023-12-14T11:43:14;2.38;;;1.60;;
11677;SDS011;5895;41.950;24.372;2023-12-14T11:45:41;1.52;;;1.30;;
11677;SDS011;5895;41.950;24.372;2023-12-14T11:48:11;1.70;;;1.50;;
11677;SDS011;5895;41.950;24.372;2023-12-14T11:50:39;1.33;;;1.23;;
11677;SDS011;5895;41.950;24.372;2023-12-14T11:53:08;1.55;;;1.20;;
11677;SDS011;5895;41.950;24.372;2023-12-14T11:55:36;2.42;;;1.50;;
11677;SDS011;5895;41.950;24.372;2023-12-14T11:58:04;2.97;;;1.30;;
11677;SDS011;5895;41.950;24.372;2023-12-14T12:00:33;1.42;;;1.20;;
11677;SDS011;5895;41.950;24.372;2023-12-14T12:03:11;1.70;;;1.40;;
11677;SDS011;5895;41.950;24.372;2023-12-14T12:05:39;2.13;;;1.50;;
11677;SDS011;5895;41.950;24.372;2023-12-14T12:08:07;3.83;;;1.33;;
11677;SDS011;5895;41.950;24.372;2023-12-14T12:10:36;2.30;;;1.67;;
11677;SDS011;5895;41.950;24.372;2023-12-14T12:13:04;3.67;;;1.70;;
11677;SDS011;5895;41.950;24.372;2023-12-14T12:15:32;2.65;;;1.48;;
11677;SDS011;5895;41.950;24.372;2023-12-14T12:18:02;2.25;;;1.50;;
11677;SDS011;5895;41.950;24.372;2023-12-14T12:20:32;1.40;;;1.27;;
11677;SDS011;5895;41.950;24.372;2023-12-14T12:22:59;3.85;;;1.30;;
11677;SDS011;5895;41.950;24.372;2023-12-14T12:25:27;3.08;;;1.35;;
11677;SDS011;5895;41.950;24.372;2023-12-14T12:27:54;3.30;;;1.50;;
11677;SDS011;5895;41.950;24.372;2023-12-14T12:30:21;4.65;;;1.70;;
11677;SDS011;5895;41.950;24.372;2023-12-14T12:32:49;2.25;;;1.45;;
11677;SDS011;5895;41.950;24.372;2023-12-14T12:35:16;2.97;;;1.50;;
11677;SDS011;5895;41.950;24.372;2023-12-14T12:37:45;1.92;;;1.50;;
11677;SDS011;5895;41.950;24.372;2023-12-14T12:40:12;4.25;;;1.92;;
11677;SDS011;5895;41.950;24.372;2023-12-14T12:42:44;2.53;;;2.05;;
11677;SDS011;5895;41.950;24.372;2023-12-14T12:45:13;3.65;;;2.08;;
11677;SDS011;5895;41.950;24.372;2023-12-14T12:47:41;2.05;;;1.70;;
11677;SDS011;5895;41.950;24.372;2023-12-14T12:50:08;3.60;;;1.90;;
11677;SDS011;5895;41.950;24.372;2023-12-14T12:52:36;2.25;;;1.50;;
11677;SDS011;5895;41.950;24.372;2023-12-14T12:55:05;2.75;;;1.60;;
11677;SDS011;5895;41.950;24.372;2023-12-14T12:57:34;2.97;;;1.40;;
11677;SDS011;5895;41.950;24.372;2023-12-14T13:00:01;3.00;;;2.28;;
11677;SDS011;5895;41.950;24.372;2023-12-14T13:02:29;4.03;;;2.45;;
11677;SDS011;5895;41.950;24.372;2023-12-14T13:04:56;2.72;;;1.55;;
11677;SDS011;5895;41.950;24.372;2023-12-14T13:07:24;2.70;;;1.40;;
11677;SDS011;5895;41.950;24.372;2023-12-14T13:09:51;2.95;;;1.60;;
11677;SDS011;5895;41.950;24.372;2023-12-14T13:12:20;3.08;;;1.40;;
11677;SDS011;5895;41.950;24.372;2023-12-14T13:14:47;2.47;;;1.33;;
11677;SDS011;5895;41.950;24.372;2023-12-14T13:17:14;2.50;;;2.15;;
11677;SDS011;5895;41.950;24.372;2023-12-14T13:19:43;3.78;;;1.73;;
11677;SDS011;5895;41.950;24.372;2023-12-14T13:22:10;2.92;;;1.75;;
11677;SDS011;5895;41.950;24.372;2023-12-14T13:24:37;2.17;;;1.40;;
11677;SDS011;5895;41.950;24.372;2023-12-14T13:27:04;3.53;;;2.00;;
11677;SDS011;5895;41.950;24.372;2023-12-14T13:29:33;2.30;;;1.70;;
11677;SDS011;5895;41.950;24.372;2023-12-14T13:32:00;2.10;;;1.60;;
11677;SDS011;5895;41.950;24.372;2023-12-14T13:34:27;1.85;;;1.52;;
11677;SDS011;5895;41.950;24.372;2023-12-14T13:36:54;7.55;;;2.78;;
11677;SDS011;5895;41.950;24.372;2023-12-14T13:39:21;6.22;;;1.92;;
11677;SDS011;5895;41.950;24.372;2023-12-14T13:41:49;2.28;;;1.60;;
11677;SDS011;5895;41.950;24.372;2023-12-14T13:44:16;3.65;;;1.65;;
11677;SDS011;5895;41.950;24.372;2023-12-14T13:46:44;8.88;;;1.77;;
11677;SDS011;5895;41.950;24.372;2023-12-14T13:49:11;4.97;;;1.63;;
11677;SDS011;5895;41.950;24.372;2023-12-14T13:51:38;4.97;;;1.48;;
11677;SDS011;5895;41.950;24.372;2023-12-14T13:54:05;3.83;;;1.80;;
11677;SDS011;5895;41.950;24.372;2023-12-14T13:56:32;3.30;;;1.25;;
11677;SDS011;5895;41.950;24.372;2023-12-14T13:58:59;2.45;;;1.40;;
11677;SDS011;5895;41.950;24.372;2023-12-14T14:01:26;2.53;;;1.70;;
11677;SDS011;5895;41.950;24.372;2023-12-14T14:03:55;9.27;;;2.00;;
11677;SDS011;5895;41.950;24.372;2023-12-14T14:06:22;2.83;;;1.67;;
11677;SDS011;5895;41.950;24.372;2023-12-14T14:08:49;4.53;;;1.65;;
11677;SDS011;5895;41.950;24.372;2023-12-14T14:11:16;6.55;;;1.90;;
11677;SDS011;5895;41.950;24.372;2023-12-14T14:13:43;3.72;;;1.50;;
11677;SDS011;5895;41.950;24.372;2023-12-14T14:16:10;5.78;;;1.80;;
11677;SDS011;5895;41.950;24.372;2023-12-14T14:18:37;2.50;;;1.42;;
11677;SDS011;5895;41.950;24.372;2023-12-14T14:21:05;3.10;;;1.70;;
11677;SDS011;5895;41.950;24.372;2023-12-14T14:23:33;5.38;;;1.80;;
11677;SDS011;5895;41.950;24.372;2023-12-14T14:26:00;3.63;;;1.55;;
11677;SDS011;5895;41.950;24.372;2023-12-14T14:28:27;3.58;;;1.60;;
11677;SDS011;5895;41.950;24.372;2023-12-14T14:30:54;5.68;;;1.83;;
11677;SDS011;5895;41.950;24.372;2023-12-14T14:33:21;2.88;;;1.58;;
11677;SDS011;5895;41.950;24.372;2023-12-14T14:35:50;3.85;;;1.77;;
11677;SDS011;5895;41.950;24.372;2023-12-14T14:38:18;3.17;;;1.90;;
11677;SDS011;5895;41.950;24.372;2023-12-14T14:40:46;5.30;;;1.83;;
11677;SDS011;5895;41.950;24.372;2023-12-14T14:43:13;3.15;;;1.83;;
11677;SDS011;5895;41.950;24.372;2023-12-14T14:45:40;3.78;;;1.65;;
11677;SDS011;5895;41.950;24.372;2023-12-14T14:48:09;3.38;;;1.58;;
11677;SDS011;5895;41.950;24.372;2023-12-14T14:50:36;3.40;;;1.90;;
11677;SDS011;5895;41.950;24.372;2023-12-14T14:53:03;5.57;;;1.90;;
11677;SDS011;5895;41.950;24.372;2023-12-14T14:55:31;3.40;;;1.83;;
11677;SDS011;5895;41.950;24.372;2023-12-14T14:58:00;7.90;;;1.90;;
11677;SDS011;5895;41.950;24.372;2023-12-14T15:00:27;2.92;;;1.80;;
11677;SDS011;5895;41.950;24.372;2023-12-14T15:02:54;2.97;;;1.90;;
11677;SDS011;5895;41.950;24.372;2023-12-14T15:05:20;3.97;;;1.80;;
11677;SDS011;5895;41.950;24.372;2023-12-14T15:07:47;3.90;;;1.85;;
11677;SDS011;5895;41.950;24.372;2023-12-14T15:10:14;2.40;;;1.83;;
11677;SDS011;5895;41.950;24.372;2023-12-14T15:12:43;4.38;;;1.77;;
11677;SDS011;5895;41.950;24.372;2023-12-14T15:15:10;3.92;;;1.95;;
11677;SDS011;5895;41.950;24.372;2023-12-14T15:17:37;6.00;;;2.00;;
11677;SDS011;5895;41.950;24.372;2023-12-14T15:20:04;1.98;;;1.52;;
11677;SDS011;5895;41.950;24.372;2023-12-14T15:22:32;3.08;;;1.77;;
11677;SDS011;5895;41.950;24.372;2023-12-14T15:24:59;3.17;;;1.88;;
11677;SDS011;5895;41.950;24.372;2023-12-14T15:27:26;4.40;;;2.15;;